sensor_id;sensor_type;location;lat;lon;timestamp;P1;durP1;ratioP1;P2;durP2;ratioP2
62435;SDS011;48480;50.252;18.848;2022-10-18T00:02:04;11.80;;;8.20;;
62435;SDS011;48480;50.252;18.848;2022-10-18T00:04:48;12.90;;;8.60;;
62435;SDS011;48480;50.252;18.848;2022-10-18T00:07:32;9.90;;;7.50;;
62435;SDS011;48480;50.252;18.848;2022-10-18T00:10:16;11.50;;;7.90;;
62435;SDS011;48480;50.252;18.848;2022-10-18T00:13:00;10.80;;;7.10;;
62435;SDS011;48480;50.252;18.848;2022-10-18T00:15:48;10.80;;;7.10;;
62435;SDS011;48480;50.252;18.848;2022-10-18T00:18:34;10.70;;;6.90;;
62435;SDS011;48480;50.252;18.848;2022-10-18T00:21:19;9.70;;;7.30;;
62435;SDS011;48480;50.252;18.848;2022-10-18T00:24:05;10.80;;;7.30;;
62435;SDS011;48480;50.252;18.848;2022-10-18T00:26:49;10.50;;;7.80;;
62435;SDS011;48480;50.252;18.848;2022-10-18T00:29:33;10.30;;;7.40;;
62435;SDS011;48480;50.252;18.848;2022-10-18T00:32:17;9.30;;;6.90;;
62435;SDS011;48480;50.252;18.848;2022-10-18T00:35:01;7.80;;;6.80;;
62435;SDS011;48480;50.252;18.848;2022-10-18T00:37:45;14.90;;;8.00;;
62435;SDS011;48480;50.252;18.848;2022-10-18T00:40:29;10.50;;;7.30;;
62435;SDS011;48480;50.252;18.848;2022-10-18T00:43:14;10.20;;;6.80;;
62435;SDS011;48480;50.252;18.848;2022-10-18T00:45:59;10.10;;;6.60;;
62435;SDS011;48480;50.252;18.848;2022-10-18T00:48:43;8.90;;;6.90;;
62435;SDS011;48480;50.252;18.848;2022-10-18T00:51:29;10.50;;;7.00;;
62435;SDS011;48480;50.252;18.848;2022-10-18T00:54:16;10.70;;;6.80;;
62435;SDS011;48480;50.252;18.848;2022-10-18T00:57:02;9.70;;;6.90;;
62435;SDS011;48480;50.252;18.848;2022-10-18T00:59:47;10.70;;;7.50;;
62435;SDS011;48480;50.252;18.848;2022-10-18T01:02:32;10.50;;;6.90;;
62435;SDS011;48480;50.252;18.848;2022-10-18T01:05:16;11.10;;;6.70;;
62435;SDS011;48480;50.252;18.848;2022-10-18T01:17:06;9.30;;;6.50;;
62435;SDS011;48480;50.252;18.848;2022-10-18T01:26:12;9.20;;;6.60;;
62435;SDS011;48480;50.252;18.848;2022-10-18T01:31:57;9.30;;;7.00;;
62435;SDS011;48480;50.252;18.848;2022-10-18T01:34:45;9.40;;;6.50;;
62435;SDS011;48480;50.252;18.848;2022-10-18T01:37:31;9.00;;;7.20;;
62435;SDS011;48480;50.252;18.848;2022-10-18T01:40:18;9.90;;;6.30;;
62435;SDS011;48480;50.252;18.848;2022-10-18T01:43:04;9.20;;;6.70;;
62435;SDS011;48480;50.252;18.848;2022-10-18T01:45:52;7.90;;;6.40;;
62435;SDS011;48480;50.252;18.848;2022-10-18T01:48:38;9.50;;;6.00;;
62435;SDS011;48480;50.252;18.848;2022-10-18T01:51:25;9.50;;;7.30;;
62435;SDS011;48480;50.252;18.848;2022-10-18T01:54:11;11.50;;;6.80;;
62435;SDS011;48480;50.252;18.848;2022-10-18T02:02:56;10.00;;;7.10;;
62435;SDS011;48480;50.252;18.848;2022-10-18T02:06:08;9.50;;;7.00;;
62435;SDS011;48480;50.252;18.848;2022-10-18T02:09:03;9.80;;;7.00;;
62435;SDS011;48480;50.252;18.848;2022-10-18T02:11:52;10.60;;;7.10;;
62435;SDS011;48480;50.252;18.848;2022-10-18T02:14:39;10.10;;;7.20;;
62435;SDS011;48480;50.252;18.848;2022-10-18T02:17:25;9.30;;;6.60;;
62435;SDS011;48480;50.252;18.848;2022-10-18T02:20:13;10.20;;;6.90;;
62435;SDS011;48480;50.252;18.848;2022-10-18T02:23:02;11.40;;;7.00;;
62435;SDS011;48480;50.252;18.848;2022-10-18T02:25:50;11.50;;;8.20;;
62435;SDS011;48480;50.252;18.848;2022-10-18T02:28:35;12.30;;;7.30;;
62435;SDS011;48480;50.252;18.848;2022-10-18T02:31:26;8.60;;;6.30;;
62435;SDS011;48480;50.252;18.848;2022-10-18T02:34:23;12.00;;;7.20;;
62435;SDS011;48480;50.252;18.848;2022-10-18T02:37:08;10.90;;;6.20;;
62435;SDS011;48480;50.252;18.848;2022-10-18T02:39:53;11.00;;;6.50;;
62435;SDS011;48480;50.252;18.848;2022-10-18T02:42:39;12.10;;;7.00;;
62435;SDS011;48480;50.252;18.848;2022-10-18T02:45:27;11.30;;;6.70;;
62435;SDS011;48480;50.252;18.848;2022-10-18T02:48:11;9.10;;;6.60;;
62435;SDS011;48480;50.252;18.848;2022-10-18T02:50:55;11.40;;;7.40;;
62435;SDS011;48480;50.252;18.848;2022-10-18T02:53:39;10.20;;;6.90;;
62435;SDS011;48480;50.252;18.848;2022-10-18T02:56:23;12.20;;;6.40;;
62435;SDS011;48480;50.252;18.848;2022-10-18T02:59:07;9.50;;;6.50;;
62435;SDS011;48480;50.252;18.848;2022-10-18T03:01:51;9.60;;;6.20;;
62435;SDS011;48480;50.252;18.848;2022-10-18T03:04:35;11.10;;;6.40;;
62435;SDS011;48480;50.252;18.848;2022-10-18T03:07:19;9.00;;;6.60;;
62435;SDS011;48480;50.252;18.848;2022-10-18T03:10:03;9.70;;;6.20;;
62435;SDS011;48480;50.252;18.848;2022-10-18T03:12:47;10.10;;;6.90;;
62435;SDS011;48480;50.252;18.848;2022-10-18T03:15:31;9.00;;;7.20;;
62435;SDS011;48480;50.252;18.848;2022-10-18T03:18:15;12.50;;;7.00;;
62435;SDS011;48480;50.252;18.848;2022-10-18T03:21:02;10.90;;;6.70;;
62435;SDS011;48480;50.252;18.848;2022-10-18T03:23:48;9.10;;;6.60;;
62435;SDS011;48480;50.252;18.848;2022-10-18T03:26:32;9.40;;;6.70;;
62435;SDS011;48480;50.252;18.848;2022-10-18T03:29:16;11.60;;;7.20;;
62435;SDS011;48480;50.252;18.848;2022-10-18T03:32:00;9.70;;;6.90;;
62435;SDS011;48480;50.252;18.848;2022-10-18T03:34:44;10.20;;;7.40;;
62435;SDS011;48480;50.252;18.848;2022-10-18T03:37:28;16.20;;;9.50;;
62435;SDS011;48480;50.252;18.848;2022-10-18T03:40:12;18.00;;;10.00;;
62435;SDS011;48480;50.252;18.848;2022-10-18T03:42:56;13.90;;;9.70;;
62435;SDS011;48480;50.252;18.848;2022-10-18T03:45:40;17.40;;;9.70;;
62435;SDS011;48480;50.252;18.848;2022-10-18T03:48:24;15.40;;;10.30;;
62435;SDS011;48480;50.252;18.848;2022-10-18T03:51:08;14.80;;;9.20;;
62435;SDS011;48480;50.252;18.848;2022-10-18T03:53:52;15.60;;;9.90;;
62435;SDS011;48480;50.252;18.848;2022-10-18T03:56:36;14.10;;;8.90;;
62435;SDS011;48480;50.252;18.848;2022-10-18T03:59:20;15.90;;;8.90;;
62435;SDS011;48480;50.252;18.848;2022-10-18T04:02:05;15.40;;;8.60;;
62435;SDS011;48480;50.252;18.848;2022-10-18T04:04:31;16.90;;;8.40;;
62435;SDS011;48480;50.252;18.848;2022-10-18T04:06:56;12.70;;;8.90;;
62435;SDS011;48480;50.252;18.848;2022-10-18T04:09:22;13.90;;;8.70;;
62435;SDS011;48480;50.252;18.848;2022-10-18T04:11:50;14.20;;;8.80;;
62435;SDS011;48480;50.252;18.848;2022-10-18T04:14:16;14.70;;;9.20;;
62435;SDS011;48480;50.252;18.848;2022-10-18T04:16:42;13.40;;;8.00;;
62435;SDS011;48480;50.252;18.848;2022-10-18T04:19:07;12.60;;;7.50;;
62435;SDS011;48480;50.252;18.848;2022-10-18T04:21:33;9.70;;;8.00;;
62435;SDS011;48480;50.252;18.848;2022-10-18T04:24:00;12.30;;;7.70;;
62435;SDS011;48480;50.252;18.848;2022-10-18T04:26:26;11.00;;;7.30;;
62435;SDS011;48480;50.252;18.848;2022-10-18T04:28:51;10.10;;;7.30;;
62435;SDS011;48480;50.252;18.848;2022-10-18T04:31:16;12.50;;;8.10;;
62435;SDS011;48480;50.252;18.848;2022-10-18T04:33:42;15.60;;;8.80;;
62435;SDS011;48480;50.252;18.848;2022-10-18T04:36:08;11.70;;;8.30;;
62435;SDS011;48480;50.252;18.848;2022-10-18T04:38:34;13.20;;;7.70;;
62435;SDS011;48480;50.252;18.848;2022-10-18T04:40:59;11.30;;;7.40;;
62435;SDS011;48480;50.252;18.848;2022-10-18T04:43:25;11.50;;;8.30;;
62435;SDS011;48480;50.252;18.848;2022-10-18T04:45:51;11.70;;;7.30;;
62435;SDS011;48480;50.252;18.848;2022-10-18T04:48:17;10.50;;;7.40;;
62435;SDS011;48480;50.252;18.848;2022-10-18T04:50:43;12.90;;;8.60;;
62435;SDS011;48480;50.252;18.848;2022-10-18T04:53:08;12.00;;;8.40;;
62435;SDS011;48480;50.252;18.848;2022-10-18T04:55:34;15.70;;;10.40;;
62435;SDS011;48480;50.252;18.848;2022-10-18T04:57:59;14.80;;;9.00;;
62435;SDS011;48480;50.252;18.848;2022-10-18T05:00:25;13.10;;;10.00;;
62435;SDS011;48480;50.252;18.848;2022-10-18T05:02:54;15.40;;;9.40;;
62435;SDS011;48480;50.252;18.848;2022-10-18T05:05:23;16.60;;;9.00;;
62435;SDS011;48480;50.252;18.848;2022-10-18T05:07:49;12.80;;;9.60;;
62435;SDS011;48480;50.252;18.848;2022-10-18T05:10:14;13.10;;;8.40;;
62435;SDS011;48480;50.252;18.848;2022-10-18T05:12:40;11.60;;;8.50;;
62435;SDS011;48480;50.252;18.848;2022-10-18T05:15:07;11.20;;;8.30;;
62435;SDS011;48480;50.252;18.848;2022-10-18T05:17:33;12.80;;;7.50;;
62435;SDS011;48480;50.252;18.848;2022-10-18T05:19:59;9.20;;;7.20;;
62435;SDS011;48480;50.252;18.848;2022-10-18T05:22:24;13.30;;;9.10;;
62435;SDS011;48480;50.252;18.848;2022-10-18T05:24:49;13.10;;;8.80;;
62435;SDS011;48480;50.252;18.848;2022-10-18T05:27:15;12.40;;;9.00;;
62435;SDS011;48480;50.252;18.848;2022-10-18T05:29:40;14.00;;;8.10;;
62435;SDS011;48480;50.252;18.848;2022-10-18T05:32:06;16.50;;;9.40;;
62435;SDS011;48480;50.252;18.848;2022-10-18T05:34:31;13.10;;;8.90;;
62435;SDS011;48480;50.252;18.848;2022-10-18T05:36:57;12.60;;;8.50;;
62435;SDS011;48480;50.252;18.848;2022-10-18T05:39:23;15.00;;;8.90;;
62435;SDS011;48480;50.252;18.848;2022-10-18T05:41:48;14.00;;;8.60;;
62435;SDS011;48480;50.252;18.848;2022-10-18T05:44:14;14.50;;;9.90;;
62435;SDS011;48480;50.252;18.848;2022-10-18T05:46:40;13.80;;;9.40;;
62435;SDS011;48480;50.252;18.848;2022-10-18T05:49:05;17.60;;;10.80;;
62435;SDS011;48480;50.252;18.848;2022-10-18T05:51:30;12.60;;;9.30;;
62435;SDS011;48480;50.252;18.848;2022-10-18T05:53:56;15.10;;;9.40;;
62435;SDS011;48480;50.252;18.848;2022-10-18T05:56:21;17.30;;;10.60;;
62435;SDS011;48480;50.252;18.848;2022-10-18T05:58:50;16.70;;;9.60;;
62435;SDS011;48480;50.252;18.848;2022-10-18T06:01:16;18.50;;;10.40;;
62435;SDS011;48480;50.252;18.848;2022-10-18T06:03:42;21.90;;;10.10;;
62435;SDS011;48480;50.252;18.848;2022-10-18T06:06:08;18.80;;;9.80;;
62435;SDS011;48480;50.252;18.848;2022-10-18T06:08:35;15.20;;;9.80;;
62435;SDS011;48480;50.252;18.848;2022-10-18T06:11:09;14.20;;;9.50;;
62435;SDS011;48480;50.252;18.848;2022-10-18T06:13:39;16.50;;;8.90;;
62435;SDS011;48480;50.252;18.848;2022-10-18T06:16:06;14.80;;;10.60;;
62435;SDS011;48480;50.252;18.848;2022-10-18T06:18:34;16.20;;;9.70;;
62435;SDS011;48480;50.252;18.848;2022-10-18T06:20:59;18.90;;;9.30;;
62435;SDS011;48480;50.252;18.848;2022-10-18T06:23:25;12.40;;;8.50;;
62435;SDS011;48480;50.252;18.848;2022-10-18T06:25:59;12.30;;;8.50;;
62435;SDS011;48480;50.252;18.848;2022-10-18T06:28:26;11.60;;;7.40;;
62435;SDS011;48480;50.252;18.848;2022-10-18T06:30:52;15.50;;;7.60;;
62435;SDS011;48480;50.252;18.848;2022-10-18T06:33:18;12.30;;;7.60;;
62435;SDS011;48480;50.252;18.848;2022-10-18T06:35:52;11.10;;;7.60;;
62435;SDS011;48480;50.252;18.848;2022-10-18T06:38:26;9.60;;;7.10;;
62435;SDS011;48480;50.252;18.848;2022-10-18T06:40:53;16.40;;;9.50;;
62435;SDS011;48480;50.252;18.848;2022-10-18T06:43:19;14.90;;;10.40;;
62435;SDS011;48480;50.252;18.848;2022-10-18T06:45:45;18.60;;;12.10;;
62435;SDS011;48480;50.252;18.848;2022-10-18T06:48:12;16.70;;;12.10;;
62435;SDS011;48480;50.252;18.848;2022-10-18T06:50:51;15.60;;;11.70;;
62435;SDS011;48480;50.252;18.848;2022-10-18T06:53:18;18.00;;;10.70;;
62435;SDS011;48480;50.252;18.848;2022-10-18T06:55:43;15.00;;;10.40;;
62435;SDS011;48480;50.252;18.848;2022-10-18T06:58:11;13.00;;;8.80;;
62435;SDS011;48480;50.252;18.848;2022-10-18T07:00:37;11.50;;;8.30;;
62435;SDS011;48480;50.252;18.848;2022-10-18T07:03:06;12.00;;;8.30;;
62435;SDS011;48480;50.252;18.848;2022-10-18T07:05:31;17.50;;;8.30;;
62435;SDS011;48480;50.252;18.848;2022-10-18T07:07:57;13.60;;;8.50;;
62435;SDS011;48480;50.252;18.848;2022-10-18T07:10:22;14.80;;;8.00;;
62435;SDS011;48480;50.252;18.848;2022-10-18T07:12:49;12.00;;;7.60;;
62435;SDS011;48480;50.252;18.848;2022-10-18T07:15:18;13.90;;;7.90;;
62435;SDS011;48480;50.252;18.848;2022-10-18T07:17:46;10.60;;;8.00;;
62435;SDS011;48480;50.252;18.848;2022-10-18T07:20:14;11.60;;;8.90;;
62435;SDS011;48480;50.252;18.848;2022-10-18T07:22:40;13.20;;;8.40;;
62435;SDS011;48480;50.252;18.848;2022-10-18T07:25:05;14.70;;;7.60;;
62435;SDS011;48480;50.252;18.848;2022-10-18T07:27:49;14.90;;;7.70;;
62435;SDS011;48480;50.252;18.848;2022-10-18T07:30:17;11.70;;;7.20;;
62435;SDS011;48480;50.252;18.848;2022-10-18T07:32:50;13.50;;;8.10;;
62435;SDS011;48480;50.252;18.848;2022-10-18T07:35:35;14.80;;;8.20;;
62435;SDS011;48480;50.252;18.848;2022-10-18T07:38:01;13.00;;;7.70;;
62435;SDS011;48480;50.252;18.848;2022-10-18T07:40:27;10.90;;;7.50;;
62435;SDS011;48480;50.252;18.848;2022-10-18T07:42:52;13.20;;;7.40;;
62435;SDS011;48480;50.252;18.848;2022-10-18T07:45:18;12.00;;;7.00;;
62435;SDS011;48480;50.252;18.848;2022-10-18T07:47:43;9.20;;;5.90;;
62435;SDS011;48480;50.252;18.848;2022-10-18T07:50:08;8.00;;;5.90;;
62435;SDS011;48480;50.252;18.848;2022-10-18T07:52:34;11.30;;;5.70;;
62435;SDS011;48480;50.252;18.848;2022-10-18T07:54:59;11.50;;;5.90;;
62435;SDS011;48480;50.252;18.848;2022-10-18T07:57:25;8.50;;;5.50;;
62435;SDS011;48480;50.252;18.848;2022-10-18T07:59:50;7.40;;;4.90;;
62435;SDS011;48480;50.252;18.848;2022-10-18T08:02:20;9.80;;;5.20;;
62435;SDS011;48480;50.252;18.848;2022-10-18T08:04:46;5.70;;;4.50;;
62435;SDS011;48480;50.252;18.848;2022-10-18T08:07:12;9.50;;;5.80;;
62435;SDS011;48480;50.252;18.848;2022-10-18T08:09:38;8.90;;;5.00;;
62435;SDS011;48480;50.252;18.848;2022-10-18T08:12:03;6.80;;;4.60;;
62435;SDS011;48480;50.252;18.848;2022-10-18T08:14:29;7.70;;;5.40;;
62435;SDS011;48480;50.252;18.848;2022-10-18T08:16:54;9.10;;;4.90;;
62435;SDS011;48480;50.252;18.848;2022-10-18T08:19:20;7.50;;;5.10;;
62435;SDS011;48480;50.252;18.848;2022-10-18T08:21:45;6.40;;;4.50;;
62435;SDS011;48480;50.252;18.848;2022-10-18T08:24:12;8.50;;;5.60;;
62435;SDS011;48480;50.252;18.848;2022-10-18T08:26:37;9.20;;;5.10;;
62435;SDS011;48480;50.252;18.848;2022-10-18T08:29:03;6.40;;;4.20;;
62435;SDS011;48480;50.252;18.848;2022-10-18T08:31:28;8.90;;;4.80;;
62435;SDS011;48480;50.252;18.848;2022-10-18T08:33:54;7.40;;;4.60;;
62435;SDS011;48480;50.252;18.848;2022-10-18T08:36:25;6.80;;;4.70;;
62435;SDS011;48480;50.252;18.848;2022-10-18T08:38:51;6.80;;;4.70;;
62435;SDS011;48480;50.252;18.848;2022-10-18T08:41:32;7.60;;;4.70;;
62435;SDS011;48480;50.252;18.848;2022-10-18T08:46:36;9.10;;;4.60;;
62435;SDS011;48480;50.252;18.848;2022-10-18T08:49:06;7.60;;;4.70;;
62435;SDS011;48480;50.252;18.848;2022-10-18T08:51:42;7.50;;;4.60;;
62435;SDS011;48480;50.252;18.848;2022-10-18T08:54:11;6.00;;;4.20;;
62435;SDS011;48480;50.252;18.848;2022-10-18T08:56:40;6.90;;;4.30;;
62435;SDS011;48480;50.252;18.848;2022-10-18T08:59:10;7.70;;;4.20;;
62435;SDS011;48480;50.252;18.848;2022-10-18T09:09:45;8.60;;;4.80;;
62435;SDS011;48480;50.252;18.848;2022-10-18T09:23:43;8.00;;;4.40;;
62435;SDS011;48480;50.252;18.848;2022-10-18T09:26:36;8.90;;;4.60;;
62435;SDS011;48480;50.252;18.848;2022-10-18T09:37:41;6.90;;;3.80;;
62435;SDS011;48480;50.252;18.848;2022-10-18T09:40:15;5.50;;;3.90;;
62435;SDS011;48480;50.252;18.848;2022-10-18T09:43:05;9.00;;;4.70;;
62435;SDS011;48480;50.252;18.848;2022-10-18T09:45:39;6.90;;;4.00;;
62435;SDS011;48480;50.252;18.848;2022-10-18T09:51:16;5.00;;;3.50;;
62435;SDS011;48480;50.252;18.848;2022-10-18T09:56:24;6.30;;;3.80;;
62435;SDS011;48480;50.252;18.848;2022-10-18T09:58:56;6.70;;;3.60;;
62435;SDS011;48480;50.252;18.848;2022-10-18T10:01:26;5.00;;;4.00;;
62435;SDS011;48480;50.252;18.848;2022-10-18T10:03:54;6.20;;;3.90;;
62435;SDS011;48480;50.252;18.848;2022-10-18T10:06:28;7.20;;;4.00;;
62435;SDS011;48480;50.252;18.848;2022-10-18T10:08:57;7.60;;;3.80;;
62435;SDS011;48480;50.252;18.848;2022-10-18T10:11:38;5.00;;;3.70;;
62435;SDS011;48480;50.252;18.848;2022-10-18T10:16:49;6.00;;;3.10;;
62435;SDS011;48480;50.252;18.848;2022-10-18T10:19:23;8.20;;;3.80;;
62435;SDS011;48480;50.252;18.848;2022-10-18T10:21:53;4.50;;;3.30;;
62435;SDS011;48480;50.252;18.848;2022-10-18T10:27:41;4.60;;;3.80;;
62435;SDS011;48480;50.252;18.848;2022-10-18T10:30:23;6.90;;;3.60;;
62435;SDS011;48480;50.252;18.848;2022-10-18T10:32:51;8.70;;;3.60;;
62435;SDS011;48480;50.252;18.848;2022-10-18T10:35:20;6.00;;;4.10;;
62435;SDS011;48480;50.252;18.848;2022-10-18T10:38:05;6.60;;;4.30;;
62435;SDS011;48480;50.252;18.848;2022-10-18T10:40:45;7.80;;;3.80;;
62435;SDS011;48480;50.252;18.848;2022-10-18T10:43:17;6.10;;;4.20;;
62435;SDS011;48480;50.252;18.848;2022-10-18T10:46:00;9.40;;;4.40;;
62435;SDS011;48480;50.252;18.848;2022-10-18T10:48:30;3.60;;;2.90;;
62435;SDS011;48480;50.252;18.848;2022-10-18T10:51:08;8.80;;;3.60;;
62435;SDS011;48480;50.252;18.848;2022-10-18T10:56:36;4.70;;;3.30;;
62435;SDS011;48480;50.252;18.848;2022-10-18T10:59:14;5.90;;;3.70;;
62435;SDS011;48480;50.252;18.848;2022-10-18T11:04:45;6.60;;;3.70;;
62435;SDS011;48480;50.252;18.848;2022-10-18T11:07:34;6.20;;;3.40;;
62435;SDS011;48480;50.252;18.848;2022-10-18T11:10:06;6.90;;;3.70;;
62435;SDS011;48480;50.252;18.848;2022-10-18T11:23:09;8.50;;;3.50;;
62435;SDS011;48480;50.252;18.848;2022-10-18T11:30:49;5.30;;;3.60;;
62435;SDS011;48480;50.252;18.848;2022-10-18T11:33:37;7.20;;;4.10;;
62435;SDS011;48480;50.252;18.848;2022-10-18T11:36:36;7.40;;;4.00;;
62435;SDS011;48480;50.252;18.848;2022-10-18T11:53:13;5.10;;;3.70;;
62435;SDS011;48480;50.252;18.848;2022-10-18T12:04:03;5.00;;;3.90;;
62435;SDS011;48480;50.252;18.848;2022-10-18T12:06:38;5.60;;;4.40;;
62435;SDS011;48480;50.252;18.848;2022-10-18T12:09:30;6.80;;;4.30;;
62435;SDS011;48480;50.252;18.848;2022-10-18T12:14:35;8.40;;;4.00;;
62435;SDS011;48480;50.252;18.848;2022-10-18T12:20:30;7.00;;;4.60;;
62435;SDS011;48480;50.252;18.848;2022-10-18T12:23:11;8.80;;;4.60;;
62435;SDS011;48480;50.252;18.848;2022-10-18T12:25:51;8.50;;;4.90;;
62435;SDS011;48480;50.252;18.848;2022-10-18T12:28:26;9.00;;;4.70;;
62435;SDS011;48480;50.252;18.848;2022-10-18T12:36:07;6.90;;;4.40;;
62435;SDS011;48480;50.252;18.848;2022-10-18T12:43:52;8.30;;;4.10;;
62435;SDS011;48480;50.252;18.848;2022-10-18T12:46:21;8.30;;;4.60;;
62435;SDS011;48480;50.252;18.848;2022-10-18T12:49:00;12.80;;;5.50;;
62435;SDS011;48480;50.252;18.848;2022-10-18T13:04:32;6.30;;;4.40;;
62435;SDS011;48480;50.252;18.848;2022-10-18T13:17:06;7.10;;;4.10;;
62435;SDS011;48480;50.252;18.848;2022-10-18T13:27:59;8.20;;;4.80;;
62435;SDS011;48480;50.252;18.848;2022-10-18T13:33:29;7.30;;;5.60;;
62435;SDS011;48480;50.252;18.848;2022-10-18T13:41:17;7.20;;;5.20;;
62435;SDS011;48480;50.252;18.848;2022-10-18T13:46:19;8.00;;;4.90;;
62435;SDS011;48480;50.252;18.848;2022-10-18T13:54:56;8.20;;;5.30;;
62435;SDS011;48480;50.252;18.848;2022-10-18T14:10:45;6.90;;;5.20;;
62435;SDS011;48480;50.252;18.848;2022-10-18T14:18:55;10.40;;;5.50;;
62435;SDS011;48480;50.252;18.848;2022-10-18T14:21:30;6.90;;;4.90;;
62435;SDS011;48480;50.252;18.848;2022-10-18T14:24:07;7.00;;;5.80;;
62435;SDS011;48480;50.252;18.848;2022-10-18T14:26:46;6.30;;;5.30;;
62435;SDS011;48480;50.252;18.848;2022-10-18T14:29:41;8.50;;;5.70;;
62435;SDS011;48480;50.252;18.848;2022-10-18T14:33:53;8.30;;;5.60;;
62435;SDS011;48480;50.252;18.848;2022-10-18T14:36:39;9.00;;;5.50;;
62435;SDS011;48480;50.252;18.848;2022-10-18T14:42:16;8.10;;;5.00;;
62435;SDS011;48480;50.252;18.848;2022-10-18T14:44:50;6.40;;;5.10;;
62435;SDS011;48480;50.252;18.848;2022-10-18T14:47:24;8.90;;;5.40;;
62435;SDS011;48480;50.252;18.848;2022-10-18T14:50:24;7.30;;;5.50;;
